Time;durP1;ratioP1;P1;durP2;ratioP2;P2;SDS_P1;SDS_P2;PMS_P1;PMS_P2;Temp;Humidity;BMP_temperature;BMP_pressure;BME280_temperature;BME280_humidity;BME280_pressure;Samples;Min_cycle;Max_cycle;Signal;HPM_P1;HPM_P2
2021/05/10 00:02:24;;;;;;;4.30;2.47;;;;;;;7.32;80.21;97940.63;4907531;29;20469;-68
2021/05/10 00:04:49;;;;;;;4.25;2.75;;;;;;;6.71;80.09;97836.38;4906381;29;20138;-68
2021/05/10 00:07:15;;;;;;;5.50;3.03;;;;;;;6.54;79.44;97817.97;4907575;29;20492;-69
2021/05/10 00:09:40;;;;;;;5.50;2.75;;;;;;;7.22;80.25;97944.53;4908162;29;20111;-68
2021/05/10 00:12:06;;;;;;;6.75;2.83;;;;;;;7.33;81.07;97945.81;4907483;29;20044;-68
2021/05/10 00:14:43;;;;;;;4.30;3.40;;;;;;;7.28;80.02;97921.19;4906455;29;20122;-69
2021/05/10 00:17:09;;;;;;;4.60;2.80;;;;;;;7.33;79.37;97911.94;4905883;29;20603;-69
2021/05/10 00:19:35;;;;;;;4.18;2.40;;;;;;;7.46;78.72;97917.25;4906213;29;20123;-68
2021/05/10 00:22:01;;;;;;;5.05;3.08;;;;;;;7.61;79.10;97933.25;4907424;29;20124;-69
2021/05/10 00:24:26;;;;;;;5.15;2.95;;;;;;;7.60;78.17;97939.91;4907641;29;20119;-69
2021/05/10 00:26:52;;;;;;;4.07;3.05;;;;;;;7.62;78.41;97921.09;4907408;29;20044;-69
2021/05/10 00:29:18;;;;;;;4.95;2.83;;;;;;;7.35;77.87;97888.41;4907747;29;20496;-69
2021/05/10 00:31:47;;;;;;;5.40;3.08;;;;;;;7.61;77.80;97925.00;4906018;29;20419;-69
2021/05/10 00:34:14;;;;;;;7.03;3.15;;;;;;;7.62;77.10;97932.13;4908266;29;20772;-68
2021/05/10 00:36:39;;;;;;;4.38;2.83;;;;;;;7.03;77.53;97857.88;4907412;29;20036;-69
2021/05/10 00:39:06;;;;;;;4.47;3.13;;;;;;;7.50;77.64;97918.22;4907943;29;20575;-68
2021/05/10 00:41:33;;;;;;;3.53;2.67;;;;;;;7.49;77.60;97913.03;4906844;29;20040;-68
2021/05/10 00:43:58;;;;;;;3.97;2.67;;;;;;;7.54;77.88;97913.66;4907599;29;20059;-68
2021/05/10 00:46:24;;;;;;;5.72;2.60;;;;;;;7.33;76.76;97885.19;4905269;29;20388;-68
2021/05/10 00:48:50;;;;;;;2.95;2.25;;;;;;;6.21;78.55;97726.06;4906231;29;20488;-69
2021/05/10 00:51:15;;;;;;;5.13;2.85;;;;;;;6.56;78.27;97803.88;4905688;29;20365;-69
2021/05/10 00:53:41;;;;;;;3.08;2.50;;;;;;;7.37;78.03;97908.19;4907724;29;20126;-68
2021/05/10 00:56:06;;;;;;;2.90;2.33;;;;;;;4.35;77.63;97432.63;4907312;29;20464;-69
2021/05/10 00:58:32;;;;;;;3.70;2.47;;;;;;;7.20;78.32;97894.47;4907066;29;20052;-69
2021/05/10 01:00:58;;;;;;;3.38;2.97;;;;;;;6.55;79.31;97829.75;4906868;29;20040;-68
2021/05/10 01:03:24;;;;;;;2.92;2.72;;;;;;;6.97;78.74;97886.75;4905970;29;20051;-69
2021/05/10 01:05:49;;;;;;;7.50;2.45;;;;;;;6.87;79.54;97887.88;4906934;29;20536;-69
2021/05/10 01:08:15;;;;;;;3.70;2.40;;;;;;;6.95;79.94;97897.25;4906422;29;20036;-69
2021/05/10 01:10:41;;;;;;;3.47;2.72;;;;;;;7.01;80.03;97899.53;4910793;29;20036;-69
2021/05/10 01:13:06;;;;;;;3.80;3.00;;;;;;;6.94;79.00;97890.94;4911224;29;20044;-69
2021/05/10 01:15:32;;;;;;;6.95;2.83;;;;;;;6.73;79.96;97898.28;4910572;29;20034;-68
2021/05/10 01:17:58;;;;;;;5.60;2.75;;;;;;;6.88;79.74;97900.50;4909638;29;20043;-69
2021/05/10 01:20:23;;;;;;;3.08;2.05;;;;;;;6.55;78.89;97840.78;4908980;29;20028;-69
2021/05/10 01:22:54;;;;;;;3.30;2.28;;;;;;;6.82;78.51;97895.50;4910951;29;20122;-68
2021/05/10 01:25:30;;;;;;;5.00;2.40;;;;;;;6.58;80.59;97896.00;4908831;29;20039;-68
2021/05/10 01:27:57;;;;;;;3.03;2.22;;;;;;;6.57;80.03;97893.56;4910652;29;20044;-69
2021/05/10 01:30:24;;;;;;;7.38;2.95;;;;;;;6.46;81.04;97882.06;4908940;29;20047;-68
2021/05/10 01:32:51;;;;;;;4.90;2.25;;;;;;;5.55;80.96;97743.78;4909264;29;20059;-68
2021/05/10 01:35:19;;;;;;;2.75;2.30;;;;;;;6.33;81.64;97885.78;4910499;29;20511;-70
2021/05/10 01:37:45;;;;;;;3.75;1.98;;;;;;;6.32;81.94;97886.91;4908901;29;20120;-70
2021/05/10 01:40:11;;;;;;;4.07;2.53;;;;;;;5.52;81.74;97751.84;4910265;29;20491;-68
2021/05/10 01:42:37;;;;;;;4.03;2.30;;;;;;;5.78;81.86;97833.25;4910883;29;20047;-67
2021/05/10 01:45:07;;;;;;;3.65;2.10;;;;;;;6.46;81.43;97887.56;4910524;29;20036;-68
2021/05/10 01:47:32;;;;;;;3.20;2.30;;;;;;;6.39;81.78;97876.22;4910519;29;20099;-68
2021/05/10 01:49:58;;;;;;;2.88;2.40;;;;;;;5.86;82.11;97804.19;4910933;29;20036;-67
2021/05/10 01:52:24;;;;;;;4.00;2.08;;;;;;;6.32;81.82;97891.59;4910020;29;20381;-70
2021/05/10 01:54:53;;;;;;;3.15;1.90;;;;;;;5.96;80.62;97806.59;4910310;29;20039;-67
2021/05/10 01:57:20;;;;;;;5.55;2.38;;;;;;;6.54;80.38;97878.50;4909352;29;20048;-68
2021/05/10 01:59:47;;;;;;;5.05;2.30;;;;;;;6.51;80.56;97883.84;4910055;29;20111;-68
2021/05/10 02:02:13;;;;;;;2.40;1.95;;;;;;;5.97;80.35;97808.25;4909390;29;20047;-70
2021/05/10 02:05:09;;;;;;;3.08;1.90;;;;;;;6.43;80.38;97885.47;4908623;29;20038;-68
2021/05/10 02:07:41;;;;;;;3.67;2.35;;;;;;;6.42;80.78;97883.84;4910709;29;20579;-68
2021/05/10 02:10:14;;;;;;;4.00;2.42;;;;;;;6.36;81.03;97904.38;4909698;29;20517;-70
2021/05/10 02:12:40;;;;;;;3.03;2.22;;;;;;;5.95;81.49;97827.81;4909810;29;20424;-69
2021/05/10 02:15:08;;;;;;;2.80;2.00;;;;;;;5.29;80.67;97712.72;4909558;29;20040;-69
2021/05/10 02:17:35;;;;;;;2.63;2.05;;;;;;;6.34;81.16;97895.63;4909975;29;20051;-69
2021/05/10 02:20:00;;;;;;;3.83;2.50;;;;;;;6.41;81.08;97895.16;4909066;29;20930;-68
2021/05/10 02:22:26;;;;;;;3.67;2.10;;;;;;;6.42;80.78;97892.09;4909604;29;20134;-69
2021/05/10 02:24:51;;;;;;;5.35;2.00;;;;;;;6.39;80.36;97898.25;4908224;29;20028;-70
2021/05/10 02:27:17;;;;;;;3.58;2.10;;;;;;;6.30;80.93;97900.19;4909725;29;20463;-69
2021/05/10 02:29:42;;;;;;;4.60;2.55;;;;;;;6.31;81.17;97901.78;4910065;29;20064;-69
2021/05/10 02:32:07;;;;;;;5.53;2.38;;;;;;;5.83;80.67;97829.56;4907621;29;20052;-69
2021/05/10 02:34:33;;;;;;;3.28;2.50;;;;;;;6.12;80.22;97879.28;4909615;29;20040;-68
2021/05/10 02:36:58;;;;;;;4.25;2.30;;;;;;;5.96;79.64;97861.59;4909203;29;20067;-67
2021/05/10 02:39:24;;;;;;;3.47;2.10;;;;;;;6.31;78.95;97907.28;4909339;29;20423;-70
2021/05/10 02:41:49;;;;;;;3.00;2.15;;;;;;;6.25;79.49;97903.09;4908904;29;20051;-68
2021/05/10 02:44:15;;;;;;;5.03;2.40;;;;;;;6.21;78.78;97910.38;4908129;29;20167;-69
2021/05/10 02:46:40;;;;;;;4.55;2.50;;;;;;;6.05;78.53;97903.69;4909013;29;20062;-70
2021/05/10 02:49:05;;;;;;;3.92;2.55;;;;;;;4.69;79.50;97723.47;4909653;29;20095;-69
2021/05/10 02:51:31;;;;;;;3.30;2.20;;;;;;;4.75;80.30;97864.13;4909012;29;20479;-68
2021/05/10 02:56:40;;;;;;;4.00;2.15;;;;;;;5.95;80.22;97915.00;4908708;29;20119;-67
2021/05/10 02:59:06;;;;;;;5.20;2.17;;;;;;;5.88;80.38;97903.66;4909212;29;20028;-67
2021/05/10 03:01:31;;;;;;;4.10;2.20;;;;;;;5.87;80.02;97907.53;4906756;29;20043;-68
2021/05/10 03:03:57;;;;;;;2.20;1.90;;;;;;;5.89;80.19;97916.28;4908983;29;20024;-69
2021/05/10 03:06:22;;;;;;;2.38;2.03;;;;;;;5.25;79.63;97807.06;4908154;29;20040;-69
2021/05/10 03:08:47;;;;;;;3.47;2.15;;;;;;;5.91;79.76;97914.03;4907728;29;20028;-68
2021/05/10 03:11:13;;;;;;;2.30;1.77;;;;;;;5.54;79.53;97851.28;4908574;29;20032;-69
2021/05/10 03:13:38;;;;;;;5.80;2.92;;;;;;;5.79;79.82;97928.34;4907474;29;20043;-69
2021/05/10 03:16:04;;;;;;;3.78;2.60;;;;;;;5.81;79.68;97909.59;4908363;29;20581;-70
2021/05/10 03:18:29;;;;;;;6.85;3.15;;;;;;;5.42;80.21;97840.09;4908540;29;20032;-69
2021/05/10 03:20:54;;;;;;;6.43;2.53;;;;;;;5.76;80.39;97906.16;4908504;29;20111;-69
2021/05/10 03:23:20;;;;;;;8.57;3.50;;;;;;;5.80;80.11;97910.69;4907159;29;20036;-69
2021/05/10 03:25:45;;;;;;;8.30;5.10;;;;;;;4.12;79.17;97631.25;4908489;29;20036;-69
2021/05/10 03:28:11;;;;;;;12.75;4.78;;;;;;;5.59;78.87;97857.44;4908745;29;20042;-67
2021/05/10 03:30:37;;;;;;;8.25;2.80;;;;;;;5.95;79.17;97907.56;4907766;29;20059;-69
2021/05/10 03:33:02;;;;;;;4.38;2.40;;;;;;;5.95;79.09;97910.31;4908135;29;20040;-69
2021/05/10 03:35:28;;;;;;;4.10;2.10;;;;;;;5.34;80.14;97876.56;4906172;29;20056;-69
2021/05/10 03:37:53;;;;;;;9.10;2.50;;;;;;;5.28;79.84;97833.91;4906803;29;20039;-69
2021/05/10 03:40:20;;;;;;;15.02;2.10;;;;;;;5.93;79.04;97909.00;4906337;29;20032;-69
2021/05/10 03:42:46;;;;;;;18.52;3.03;;;;;;;5.68;78.67;97865.72;4906690;29;20059;-69
2021/05/10 03:45:13;;;;;;;5.05;2.80;;;;;;;6.09;79.13;97908.22;4908049;29;20032;-69
2021/05/10 03:47:39;;;;;;;7.60;3.22;;;;;;;6.17;78.59;97912.13;4908300;29;20044;-69
2021/05/10 03:50:25;;;;;;;11.25;2.38;;;;;;;6.29;77.47;97912.34;4906509;29;20542;-69
2021/05/10 03:52:51;;;;;;;5.80;2.30;;;;;;;5.88;77.44;97859.66;4888991;29;20143;-69
2021/05/10 03:55:19;;;;;;;8.90;2.75;;;;;;;6.18;77.43;97892.56;4888687;29;20111;-67
2021/05/10 03:57:45;;;;;;;11.23;2.95;;;;;;;6.05;77.57;97859.69;4888912;29;20052;-68
2021/05/10 04:00:13;;;;;;;7.65;2.47;;;;;;;6.53;76.47;97931.91;4889307;29;20033;-68
2021/05/10 04:02:39;;;;;;;15.65;3.30;;;;;;;5.76;76.75;97786.03;4889583;29;20412;-67
2021/05/10 04:15:34;;;;;;;8.52;3.00;;;;;;;6.32;73.65;97776.06;4888635;29;20044;-71
2021/05/10 04:17:59;;;;;;;12.05;2.78;;;;;;;6.96;72.46;97852.06;4888794;29;20036;-70
2021/05/10 04:20:25;;;;;;;12.65;2.50;;;;;;;7.04;71.88;97846.53;4889083;29;21104;-71
2021/05/10 04:22:50;;;;;;;14.18;2.67;;;;;;;7.44;72.28;97908.50;4887405;29;20505;-70
2021/05/10 04:25:16;;;;;;;7.63;2.15;;;;;;;7.57;72.23;97917.72;4888472;29;20080;-71
2021/05/10 04:27:41;;;;;;;4.55;2.35;;;;;;;7.65;72.20;97905.81;4889058;29;20495;-71
2021/05/10 04:30:08;;;;;;;4.85;2.17;;;;;;;7.90;72.04;97909.63;4887134;29;20123;-71
2021/05/10 04:32:33;;;;;;;5.75;2.50;;;;;;;7.99;70.75;97891.06;4902748;29;20051;-71
2021/05/10 04:34:59;;;;;;;3.10;1.92;;;;;;;8.17;71.16;97914.69;4888720;29;20032;-71
2021/05/10 04:37:24;;;;;;;10.15;2.80;;;;;;;7.00;70.76;97716.09;4902411;29;20135;-71
2021/05/10 04:39:50;;;;;;;10.95;3.40;;;;;;;8.42;70.20;97914.56;4888560;29;20044;-72
2021/05/10 04:42:16;;;;;;;10.02;3.25;;;;;;;8.59;69.54;97910.84;4887141;29;20156;-72
2021/05/10 04:44:41;;;;;;;4.68;2.40;;;;;;;8.38;68.54;97876.88;4891495;29;20055;-72
2021/05/10 04:47:07;;;;;;;8.68;3.25;;;;;;;8.86;68.46;97915.84;4892166;29;20477;-72
2021/05/10 04:49:32;;;;;;;6.90;2.90;;;;;;;8.90;67.90;97902.94;4892786;29;20041;-72
2021/05/10 04:51:58;;;;;;;8.27;2.88;;;;;;;9.17;67.01;97922.53;4905273;29;20047;-71
2021/05/10 04:54:23;;;;;;;7.90;2.55;;;;;;;9.40;66.23;97916.63;4911115;29;20078;-72
2021/05/10 04:56:49;;;;;;;8.38;2.42;;;;;;;9.19;65.87;97864.16;4910264;29;20447;-71
2021/05/10 04:59:14;;;;;;;10.10;2.63;;;;;;;8.54;64.47;97715.00;4909636;29;20044;-71
2021/05/10 05:01:39;;;;;;;6.00;2.38;;;;;;;9.94;62.74;97924.44;4910855;29;20095;-72
2021/05/10 05:04:05;;;;;;;3.25;2.30;;;;;;;10.18;62.67;97924.47;4911569;29;20028;-72
2021/05/10 05:06:30;;;;;;;6.07;2.50;;;;;;;8.34;61.49;97644.09;4910841;29;20172;-70
2021/05/10 05:08:56;;;;;;;4.53;2.38;;;;;;;9.72;61.19;97805.91;4911238;29;20507;-71
2021/05/10 05:11:21;;;;;;;5.65;2.50;;;;;;;10.64;60.49;97926.75;4909223;29;20032;-72
2021/05/10 05:13:46;;;;;;;4.53;2.67;;;;;;;10.43;59.97;97887.31;4909452;29;20194;-70
2021/05/10 05:16:12;;;;;;;5.18;3.00;;;;;;;10.86;59.66;97921.88;4910576;29;20032;-70
2021/05/10 05:18:37;;;;;;;8.27;3.15;;;;;;;10.93;59.35;97922.06;4910078;29;20408;-71
2021/05/10 05:21:04;;;;;;;7.30;3.83;;;;;;;11.02;59.47;97919.97;4910452;29;20032;-71
2021/05/10 05:23:29;;;;;;;5.85;3.67;;;;;;;11.20;59.21;97926.81;4910734;29;20044;-70
2021/05/10 05:26:00;;;;;;;6.55;4.43;;;;;;;11.29;59.24;97919.97;4910336;29;20086;-70
2021/05/10 05:28:27;;;;;;;10.43;5.68;;;;;;;11.23;58.65;97890.88;4909067;29;20032;-69
2021/05/10 05:30:57;;;;;;;7.10;3.60;;;;;;;11.54;58.20;97915.91;4910212;29;20063;-70
2021/05/10 05:33:23;;;;;;;7.65;3.63;;;;;;;11.60;58.16;97908.13;4909075;29;20556;-71
2021/05/10 05:35:48;;;;;;;4.60;3.67;;;;;;;10.97;57.90;97842.59;4910097;29;20040;-70
2021/05/10 05:38:14;;;;;;;4.45;3.78;;;;;;;11.13;57.99;97812.94;4909136;29;20044;-70
2021/05/10 05:40:41;;;;;;;4.70;4.30;;;;;;;11.37;58.67;97832.19;4909588;29;20043;-70
2021/05/10 05:43:10;;;;;;;7.13;4.75;;;;;;;11.90;57.83;97901.81;4908692;29;20479;-71
2021/05/10 05:45:37;;;;;;;18.27;12.35;;;;;;;11.36;60.41;97911.84;4910401;29;20099;-70
2021/05/10 05:48:04;;;;;;;17.48;11.77;;;;;;;10.97;62.06;97911.91;4910165;29;20104;-70
2021/05/10 05:50:30;;;;;;;18.50;11.52;;;;;;;11.35;61.22;97917.75;4909471;29;20354;-70
2021/05/10 05:52:56;;;;;;;17.15;10.95;;;;;;;11.33;60.00;97881.25;4910975;29;20066;-68
2021/05/10 05:55:22;;;;;;;14.75;9.55;;;;;;;8.70;59.95;97487.56;4905468;29;20512;-66
2021/05/10 05:57:48;;;;;;;16.13;10.27;;;;;;;11.51;57.78;97852.00;4909423;29;20060;-69
2021/05/10 06:00:14;;;;;;;16.77;7.65;;;;;;;10.07;57.23;97690.81;4909290;29;20040;-68
2021/05/10 06:02:41;;;;;;;9.02;5.68;;;;;;;11.67;55.57;97933.31;4919602;29;20147;-61
2021/05/10 06:05:08;;;;;;;10.05;6.07;;;;;;;12.10;55.66;97905.50;4928555;29;20115;-63
2021/05/10 06:07:38;;;;;;;13.32;6.30;;;;;;;12.43;54.62;97905.91;4928959;29;20083;-62
2021/05/10 06:10:04;;;;;;;7.97;5.60;;;;;;;11.49;52.95;97726.72;4922488;29;20045;-69
2021/05/10 06:12:29;;;;;;;6.45;3.92;;;;;;;12.53;49.34;97830.31;4910881;29;20052;-64
2021/05/10 06:14:55;;;;;;;7.32;3.75;;;;;;;12.18;50.75;97763.69;4909910;29;20032;-63
2021/05/10 06:17:20;;;;;;;6.28;3.95;;;;;;;12.06;50.76;97726.91;4909596;29;20515;-69
2021/05/10 06:19:46;;;;;;;6.15;3.60;;;;;;;11.95;50.26;97720.28;4909842;29;20433;-62
2021/05/10 06:22:11;;;;;;;5.88;3.53;;;;;;;12.83;50.77;97889.75;4909212;29;20111;-63
2021/05/10 06:24:39;;;;;;;4.68;3.88;;;;;;;11.69;51.53;97778.38;4907569;29;20578;-59
2021/05/10 06:27:05;;;;;;;7.97;4.00;;;;;;;12.64;51.17;97886.97;4908939;29;20044;-63
2021/05/10 06:29:31;;;;;;;5.00;3.42;;;;;;;12.79;48.34;97860.25;4908532;29;20813;-66
2021/05/10 06:31:56;;;;;;;3.67;2.80;;;;;;;13.37;45.46;97887.72;4907154;29;20512;-62
2021/05/10 06:34:22;;;;;;;2.95;2.65;;;;;;;13.62;45.20;97897.34;4909724;29;20126;-67
2021/05/10 06:36:47;;;;;;;3.17;2.53;;;;;;;13.12;44.61;97736.22;4925282;29;20527;-63
2021/05/10 06:39:13;;;;;;;3.63;2.72;;;;;;;14.37;44.28;97874.41;4927107;29;20066;-66
2021/05/10 06:41:38;;;;;;;9.73;3.90;;;;;;;14.31;44.43;97831.28;4924566;29;20091;-71
2021/05/10 06:44:04;;;;;;;5.00;3.13;;;;;;;14.57;45.33;97862.78;4916111;29;20028;-68
2021/05/10 06:46:29;;;;;;;3.97;3.30;;;;;;;14.42;44.86;97804.38;4908960;29;20504;-62
2021/05/10 06:48:55;;;;;;;5.80;3.47;;;;;;;14.67;45.08;97873.25;4915803;29;20036;-62
2021/05/10 06:51:20;;;;;;;3.58;2.97;;;;;;;14.71;44.93;97870.53;4907212;29;20036;-60
2021/05/10 06:53:46;;;;;;;3.97;2.78;;;;;;;14.49;42.48;97790.56;4920039;29;20040;-67
2021/05/10 06:56:11;;;;;;;4.28;2.85;;;;;;;13.65;41.96;97604.31;4925603;29;20062;-66
2021/05/10 06:58:36;;;;;;;6.38;2.50;;;;;;;15.53;40.53;97862.81;4908961;29;20054;-63
2021/05/10 07:01:02;;;;;;;3.45;3.15;;;;;;;15.11;40.87;97859.53;4909078;29;20042;-63
2021/05/10 07:03:27;;;;;;;3.08;2.47;;;;;;;15.29;40.94;97863.31;4911989;29;20126;-62
2021/05/10 07:05:53;;;;;;;4.93;2.72;;;;;;;14.31;41.18;97759.66;4907417;29;20036;-63
2021/05/10 07:08:18;;;;;;;3.10;2.63;;;;;;;14.18;42.35;97843.81;4926046;29;20429;-65
2021/05/10 07:10:51;;;;;;;2.72;2.20;;;;;;;14.45;41.92;97798.03;4927218;29;20560;-64
2021/05/10 07:13:17;;;;;;;5.15;2.97;;;;;;;14.49;42.62;97776.63;4911684;29;20048;-62
2021/05/10 07:15:44;;;;;;;5.32;2.83;;;;;;;15.44;41.60;97851.16;4889525;29;20041;-65
2021/05/10 07:18:13;;;;;;;2.80;2.60;;;;;;;15.60;42.35;97854.50;4888006;29;20077;-66
2021/05/10 07:20:41;;;;;;;3.25;2.85;;;;;;;15.95;41.35;97849.25;4889085;29;20068;-63
2021/05/10 07:23:07;;;;;;;2.78;2.47;;;;;;;13.15;41.55;97462.84;4907471;29;20035;-63
2021/05/10 07:25:34;;;;;;;2.70;2.50;;;;;;;15.48;40.92;97846.41;4907812;29;20065;-63
2021/05/10 07:27:59;;;;;;;2.75;2.55;;;;;;;14.35;40.57;97692.81;4909712;29;20044;-63
2021/05/10 07:30:25;;;;;;;7.45;3.05;;;;;;;14.67;41.28;97688.41;4901595;29;20491;-71
2021/05/10 07:32:51;;;;;;;3.25;2.97;;;;;;;16.01;40.05;97842.13;4896112;29;20051;-64
2021/05/10 07:35:16;;;;;;;4.10;3.03;;;;;;;15.43;40.33;97704.34;4903150;29;20653;-62
2021/05/10 07:37:41;;;;;;;4.32;2.80;;;;;;;16.31;39.46;97778.47;4907998;29;20055;-66
2021/05/10 07:40:08;;;;;;;3.63;3.20;;;;;;;16.58;38.83;97832.22;4904427;29;20044;-70
2021/05/10 07:42:33;;;;;;;6.55;2.92;;;;;;;15.51;38.66;97652.97;4888452;29;20068;-72
2021/05/10 07:44:59;;;;;;;3.65;2.67;;;;;;;16.55;38.82;97789.03;4897811;29;20067;-63
2021/05/10 07:47:25;;;;;;;7.18;4.82;;;;;;;16.45;38.97;97812.13;4902204;29;20040;-68
2021/05/10 07:49:51;;;;;;;4.15;3.13;;;;;;;16.17;38.88;97742.03;4879931;29;20128;-70
2021/05/10 07:52:17;;;;;;;3.40;3.20;;;;;;;16.76;38.46;97821.09;4883782;29;20368;-70
2021/05/10 07:54:42;;;;;;;3.40;3.10;;;;;;;16.24;38.58;97744.88;4905796;29;20059;-64
2021/05/10 07:57:08;;;;;;;5.43;3.03;;;;;;;16.84;39.13;97789.16;4906829;29;20135;-70
2021/05/10 07:59:35;;;;;;;3.63;3.20;;;;;;;17.41;38.04;97818.97;4893794;29;20039;-73
2021/05/10 08:02:02;;;;;;;5.60;3.83;;;;;;;17.13;37.31;97740.50;4912018;29;20617;-70
2021/05/10 08:04:27;;;;;;;4.78;3.47;;;;;;;16.95;38.12;97742.41;4906170;29;20032;-65
2021/05/10 08:06:53;;;;;;;4.82;3.40;;;;;;;17.42;37.31;97775.78;4907372;29;20043;-71
2021/05/10 08:09:20;;;;;;;8.73;3.83;;;;;;;17.08;37.73;97698.88;4894799;29;20595;-63
2021/05/10 08:11:46;;;;;;;3.45;3.13;;;;;;;15.52;37.28;97450.72;4926111;29;20058;-67
2021/05/10 08:14:11;;;;;;;4.07;2.97;;;;;;;17.73;37.34;97809.47;4926748;29;20488;-72
2021/05/10 08:16:37;;;;;;;3.35;3.05;;;;;;;17.61;37.56;97775.41;4925689;29;20513;-75
2021/05/10 08:19:03;;;;;;;9.75;4.10;;;;;;;17.66;37.24;97769.41;4926554;29;20042;-73
2021/05/10 08:21:28;;;;;;;5.20;3.17;;;;;;;16.94;36.78;97682.06;4918147;28;20052;-71
2021/05/10 08:23:54;;;;;;;3.90;3.53;;;;;;;17.59;37.58;97798.22;4895753;29;20116;-62
2021/05/10 08:26:19;;;;;;;4.72;3.13;;;;;;;17.44;37.59;97802.22;4923536;29;20119;-63
2021/05/10 08:28:45;;;;;;;3.85;2.95;;;;;;;17.53;37.81;97793.44;4905286;29;20098;-62
2021/05/10 08:31:10;;;;;;;14.63;4.97;;;;;;;17.66;38.40;97798.25;4891024;29;20402;-65
2021/05/10 08:33:35;;;;;;;7.65;3.40;;;;;;;17.45;38.67;97797.41;4888528;29;20036;-64
2021/05/10 08:36:01;;;;;;;3.25;2.97;;;;;;;17.88;37.67;97783.03;4888705;29;20029;-63
2021/05/10 08:38:26;;;;;;;3.88;2.75;;;;;;;18.19;37.27;97792.66;4894078;29;20119;-76
2021/05/10 08:40:53;;;;;;;2.88;2.67;;;;;;;17.88;36.89;97692.53;4919778;29;20085;-68
2021/05/10 08:43:26;;;;;;;4.95;2.67;;;;;;;18.89;36.36;97775.66;4924484;29;20089;-64
2021/05/10 08:45:56;;;;;;;3.40;3.10;;;;;;;18.80;35.63;97782.91;4909496;29;20328;-67
2021/05/10 08:48:23;;;;;;;7.60;3.03;;;;;;;18.87;36.58;97772.50;4922575;29;20031;-68
2021/05/10 08:50:50;;;;;;;3.38;3.13;;;;;;;18.37;35.82;97698.03;4898087;29;20096;-70
2021/05/10 08:53:15;;;;;;;3.30;3.00;;;;;;;19.05;35.74;97766.78;4888307;29;20497;-70
2021/05/10 08:55:41;;;;;;;3.63;3.33;;;;;;;18.01;36.25;97602.00;4905195;29;20036;-64
2021/05/10 08:58:10;;;;;;;5.07;4.20;;;;;;;15.69;37.45;97349.44;4912217;29;20566;-69
2021/05/10 09:00:54;;;;;;;4.95;3.70;;;;;;;17.70;37.03;97618.91;4925094;29;20495;-67
2021/05/10 09:03:20;;;;;;;3.65;3.45;;;;;;;18.20;36.56;97712.91;4905692;29;20055;-67
2021/05/10 09:05:50;;;;;;;4.72;2.88;;;;;;;18.33;37.42;97775.00;4906368;29;20032;-67
2021/05/10 09:08:17;;;;;;;4.03;3.63;;;;;;;18.30;37.44;97731.75;4921120;29;20044;-67
2021/05/10 09:11:06;;;;;;;3.58;2.95;;;;;;;18.82;36.27;97770.09;4906236;29;20132;-68
2021/05/10 09:13:36;;;;;;;6.00;3.05;;;;;;;18.91;36.34;97759.22;4905677;29;20367;-66
2021/05/10 09:16:03;;;;;;;3.80;3.42;;;;;;;19.25;35.58;97771.47;4906593;29;20028;-68
2021/05/10 09:18:30;;;;;;;5.57;4.47;;;;;;;19.37;36.23;97756.22;4906812;29;20520;-68
2021/05/10 09:21:15;;;;;;;5.00;3.58;;;;;;;19.46;35.66;97720.00;4897629;29;20501;-70
2021/05/10 09:23:40;;;;;;;7.35;3.30;;;;;;;20.18;35.26;97744.34;4897939;29;20683;-69
2021/05/10 09:26:06;;;;;;;4.63;3.85;;;;;;;19.39;35.82;97743.34;4890064;29;20036;-68
2021/05/10 09:28:37;;;;;;;3.50;3.22;;;;;;;18.81;37.17;97757.25;4904680;29;20172;-71
2021/05/10 09:31:06;;;;;;;3.50;3.20;;;;;;;19.21;36.43;97742.63;4905662;29;20148;-65
2021/05/10 09:33:33;;;;;;;3.33;3.13;;;;;;;19.31;35.92;97690.41;4912260;29;20065;-65
2021/05/10 09:36:07;;;;;;;4.03;3.00;;;;;;;19.62;36.08;97739.19;4890640;29;20384;-70
2021/05/10 09:38:35;;;;;;;4.10;3.67;;;;;;;19.23;36.53;97734.59;4895408;29;20568;-72
2021/05/10 09:41:02;;;;;;;4.88;2.90;;;;;;;18.66;37.28;97665.91;4899684;29;20032;-69
2021/05/10 09:43:38;;;;;;;3.15;2.78;;;;;;;19.73;36.51;97723.03;4890457;29;20037;-68
2021/05/10 09:46:12;;;;;;;7.07;4.20;;;;;;;19.56;36.84;97724.75;4890557;29;20572;-69
2021/05/10 09:48:40;;;;;;;5.65;4.57;;;;;;;19.46;36.83;97720.81;4894307;29;20064;-72
2021/05/10 09:51:11;;;;;;;4.80;3.53;;;;;;;19.46;36.33;97709.56;4910552;29;20120;-70
2021/05/10 09:53:57;;;;;;;3.35;3.05;;;;;;;18.21;36.71;97470.50;4891983;29;20542;-67
2021/05/10 09:58:53;;;;;;;4.60;3.28;;;;;;;19.51;35.98;97699.91;4903675;29;20056;-62
2021/05/10 10:01:19;;;;;;;3.30;3.10;;;;;;;19.09;36.50;97700.16;4900603;29;20068;-67
2021/05/10 10:03:47;;;;;;;3.20;3.00;;;;;;;19.15;36.36;97688.09;4891480;29;20136;-66
2021/05/10 10:06:15;;;;;;;4.03;3.20;;;;;;;18.46;36.97;97516.09;4903028;29;20416;-67
2021/05/10 10:08:43;;;;;;;3.83;3.47;;;;;;;19.85;37.59;97680.34;4907658;29;20179;-68
2021/05/10 10:11:10;;;;;;;5.50;3.85;;;;;;;18.88;36.71;97503.75;4907045;29;20055;-71
2021/05/10 10:13:37;;;;;;;5.28;3.28;;;;;;;19.71;36.02;97675.66;4909207;29;20193;-72
2021/05/10 10:16:04;;;;;;;3.72;3.38;;;;;;;20.09;36.66;97676.50;4909219;29;20067;-73
2021/05/10 10:18:30;;;;;;;3.60;3.30;;;;;;;19.14;36.02;97562.09;4909732;29;20583;-74
2021/05/10 10:20:59;;;;;;;5.15;4.53;;;;;;;18.84;36.44;97470.06;4908875;29;20550;-73
2021/05/10 10:23:28;;;;;;;4.65;3.22;;;;;;;19.86;36.68;97659.44;4908053;29;20499;-73
2021/05/10 10:25:58;;;;;;;5.50;3.42;;;;;;;19.96;36.86;97664.16;4908971;29;20032;-72
2021/05/10 10:28:26;;;;;;;3.95;3.55;;;;;;;20.36;36.45;97655.72;4895307;29;20053;-68
2021/05/10 10:31:02;;;;;;;4.30;3.33;;;;;;;20.37;36.11;97650.91;4891170;29;20039;-67
2021/05/10 10:33:33;;;;;;;4.43;3.65;;;;;;;20.31;37.03;97658.22;4890926;29;20139;-65
2021/05/10 10:36:01;;;;;;;4.88;3.63;;;;;;;20.46;36.05;97575.19;4888822;29;20075;-71
2021/05/10 10:38:32;;;;;;;4.32;3.55;;;;;;;21.14;35.52;97644.25;4891673;29;20045;-65
2021/05/10 10:41:20;;;;;;;3.70;3.40;;;;;;;20.87;36.10;97640.59;4888817;29;20092;-65
2021/05/10 10:43:47;;;;;;;3.78;3.47;;;;;;;19.28;37.56;97512.22;4904019;29;20044;-67
2021/05/10 10:46:17;;;;;;;4.22;3.75;;;;;;;19.90;36.55;97620.84;4889820;29;20044;-69
2021/05/10 10:48:44;;;;;;;4.45;3.85;;;;;;;20.27;37.38;97612.41;4889947;29;20501;-63
2021/05/10 10:51:11;;;;;;;5.03;3.60;;;;;;;20.29;36.89;97609.97;4908368;29;20518;-67
2021/05/10 10:53:50;;;;;;;3.88;3.28;;;;;;;19.74;37.52;97503.34;4908191;29;20075;-67
2021/05/10 10:56:16;;;;;;;3.45;3.20;;;;;;;20.80;36.27;97626.63;4903663;29;20028;-68
2021/05/10 10:58:44;;;;;;;3.40;2.90;;;;;;;20.77;35.63;97573.97;4922728;29;20526;-68
2021/05/10 11:01:20;;;;;;;3.25;3.05;;;;;;;21.16;35.45;97608.00;4908286;29;20032;-69
2021/05/10 11:03:47;;;;;;;7.65;3.50;;;;;;;19.31;36.52;97281.06;4907176;29;20066;-69
2021/05/10 11:06:14;;;;;;;8.43;5.63;;;;;;;21.20;36.21;97603.09;4908363;29;20170;-68
2021/05/10 11:08:42;;;;;;;3.97;3.45;;;;;;;20.78;36.53;97586.81;4907053;29;20040;-67
2021/05/10 11:11:07;;;;;;;7.60;5.47;;;;;;;20.68;35.70;97480.75;4906190;29;20430;-70
2021/05/10 11:13:37;;;;;;;5.20;3.95;;;;;;;21.55;34.94;97594.06;4908063;29;20114;-69
2021/05/10 11:16:10;;;;;;;4.47;4.07;;;;;;;21.47;36.19;97584.13;4897737;29;20040;-71
2021/05/10 11:18:44;;;;;;;;;;;;;;;21.75;35.30;97583.66;4904351;29;20508;-68
2021/05/10 11:21:29;;;;;;;6.53;4.32;;;;;;;21.11;35.12;97486.50;4888787;29;19966;-68
2021/05/10 11:23:57;;;;;;;4.70;3.88;;;;;;;21.76;35.18;97573.16;4900625;29;20103;-68
2021/05/10 11:26:34;;;;;;;3.80;3.50;;;;;;;21.61;35.06;97578.22;4907507;29;20420;-67
2021/05/10 11:29:00;;;;;;;4.45;3.33;;;;;;;21.04;35.33;97538.13;4908229;29;20040;-68
2021/05/10 11:31:36;;;;;;;4.32;3.97;;;;;;;21.40;35.48;97533.53;4906929;29;20042;-71
2021/05/10 11:34:08;;;;;;;4.07;3.75;;;;;;;20.81;35.68;97535.28;4903722;29;20472;-68
2021/05/10 11:36:36;;;;;;;4.65;3.40;;;;;;;20.84;36.30;97573.84;4924682;29;20051;-68
2021/05/10 11:39:09;;;;;;;4.03;3.17;;;;;;;21.47;35.18;97564.38;4917915;29;20227;-69
2021/05/10 11:41:43;;;;;;;4.15;3.75;;;;;;;21.42;35.24;97500.03;4904787;29;20036;-70
2021/05/10 11:44:11;;;;;;;4.03;3.35;;;;;;;21.05;34.69;97454.44;4891316;29;20139;-70
2021/05/10 11:46:42;;;;;;;5.25;3.60;;;;;;;21.50;33.97;97447.94;4892712;29;20036;-69
2021/05/10 11:49:41;;;;;;;5.72;3.33;;;;;;;22.05;34.66;97541.16;4907693;29;20507;-67
2021/05/10 11:52:15;;;;;;;4.72;3.90;;;;;;;21.12;34.73;97449.44;4888754;29;20428;-67
2021/05/10 11:54:50;;;;;;;9.43;5.45;;;;;;;22.34;34.73;97530.88;4891964;29;20049;-69